sensor_id;sensor_type;location;lat;lon;timestamp;P1;durP1;ratioP1;P2;durP2;ratioP2
42602;SDS011;28233;55.748;48.752;2023-05-09T00:02:00;5.22;;;1.58;;
42602;SDS011;28233;55.748;48.752;2023-05-09T00:04:03;5.13;;;2.50;;
42602;SDS011;28233;55.748;48.752;2023-05-09T00:06:06;2.58;;;1.40;;
42602;SDS011;28233;55.748;48.752;2023-05-09T00:08:09;5.70;;;1.45;;
42602;SDS011;28233;55.748;48.752;2023-05-09T00:10:12;3.78;;;1.50;;
42602;SDS011;28233;55.748;48.752;2023-05-09T00:12:15;2.97;;;1.08;;
42602;SDS011;28233;55.748;48.752;2023-05-09T00:14:18;2.90;;;1.05;;
42602;SDS011;28233;55.748;48.752;2023-05-09T00:16:21;3.63;;;1.27;;
42602;SDS011;28233;55.748;48.752;2023-05-09T00:18:25;5.57;;;0.90;;
42602;SDS011;28233;55.748;48.752;2023-05-09T00:20:29;2.28;;;1.00;;
42602;SDS011;28233;55.748;48.752;2023-05-09T00:22:35;3.22;;;1.00;;
42602;SDS011;28233;55.748;48.752;2023-05-09T00:24:38;3.67;;;1.30;;
42602;SDS011;28233;55.748;48.752;2023-05-09T00:26:40;2.22;;;1.30;;
42602;SDS011;28233;55.748;48.752;2023-05-09T00:28:43;4.22;;;1.25;;
42602;SDS011;28233;55.748;48.752;2023-05-09T00:30:46;3.58;;;1.25;;
42602;SDS011;28233;55.748;48.752;2023-05-09T00:32:48;2.78;;;1.10;;
42602;SDS011;28233;55.748;48.752;2023-05-09T00:34:51;1.80;;;1.25;;
42602;SDS011;28233;55.748;48.752;2023-05-09T00:36:54;2.83;;;1.30;;
42602;SDS011;28233;55.748;48.752;2023-05-09T00:38:57;2.50;;;1.05;;
42602;SDS011;28233;55.748;48.752;2023-05-09T00:41:00;3.72;;;1.60;;
42602;SDS011;28233;55.748;48.752;2023-05-09T00:43:03;7.07;;;1.40;;
42602;SDS011;28233;55.748;48.752;2023-05-09T00:45:06;5.65;;;1.27;;
42602;SDS011;28233;55.748;48.752;2023-05-09T00:47:09;2.85;;;0.82;;
42602;SDS011;28233;55.748;48.752;2023-05-09T00:49:12;2.78;;;1.73;;
42602;SDS011;28233;55.748;48.752;2023-05-09T00:51:15;1.77;;;0.98;;
42602;SDS011;28233;55.748;48.752;2023-05-09T00:53:19;2.40;;;0.95;;
42602;SDS011;28233;55.748;48.752;2023-05-09T00:55:22;2.10;;;0.90;;
42602;SDS011;28233;55.748;48.752;2023-05-09T00:57:25;1.98;;;1.13;;
42602;SDS011;28233;55.748;48.752;2023-05-09T00:59:28;1.73;;;0.90;;
42602;SDS011;28233;55.748;48.752;2023-05-09T01:01:31;7.00;;;1.40;;
42602;SDS011;28233;55.748;48.752;2023-05-09T01:03:34;2.72;;;0.80;;
42602;SDS011;28233;55.748;48.752;2023-05-09T01:05:48;3.85;;;1.20;;
42602;SDS011;28233;55.748;48.752;2023-05-09T01:08:06;2.05;;;1.17;;
42602;SDS011;28233;55.748;48.752;2023-05-09T01:10:30;3.08;;;0.95;;
42602;SDS011;28233;55.748;48.752;2023-05-09T01:12:45;1.25;;;0.80;;
42602;SDS011;28233;55.748;48.752;2023-05-09T01:14:58;3.53;;;1.35;;
42602;SDS011;28233;55.748;48.752;2023-05-09T01:21:51;3.70;;;1.55;;
42602;SDS011;28233;55.748;48.752;2023-05-09T01:31:16;1.38;;;0.70;;
42602;SDS011;28233;55.748;48.752;2023-05-09T01:33:21;1.50;;;0.80;;
42602;SDS011;28233;55.748;48.752;2023-05-09T01:35:28;2.60;;;1.10;;
42602;SDS011;28233;55.748;48.752;2023-05-09T01:37:35;2.35;;;0.82;;
42602;SDS011;28233;55.748;48.752;2023-05-09T01:39:44;1.80;;;1.10;;
42602;SDS011;28233;55.748;48.752;2023-05-09T01:41:51;2.83;;;1.30;;
42602;SDS011;28233;55.748;48.752;2023-05-09T01:43:58;2.05;;;1.40;;
42602;SDS011;28233;55.748;48.752;2023-05-09T01:46:04;2.42;;;1.38;;
42602;SDS011;28233;55.748;48.752;2023-05-09T01:48:08;3.90;;;1.33;;
42602;SDS011;28233;55.748;48.752;2023-05-09T01:50:12;2.60;;;1.60;;
42602;SDS011;28233;55.748;48.752;2023-05-09T01:52:16;2.80;;;1.85;;
42602;SDS011;28233;55.748;48.752;2023-05-09T01:54:21;3.58;;;1.27;;
42602;SDS011;28233;55.748;48.752;2023-05-09T01:56:28;2.90;;;1.20;;
42602;SDS011;28233;55.748;48.752;2023-05-09T01:58:33;1.75;;;1.00;;
42602;SDS011;28233;55.748;48.752;2023-05-09T02:00:39;6.20;;;1.55;;
42602;SDS011;28233;55.748;48.752;2023-05-09T02:02:42;4.25;;;2.25;;
42602;SDS011;28233;55.748;48.752;2023-05-09T02:04:46;3.47;;;1.52;;
42602;SDS011;28233;55.748;48.752;2023-05-09T02:06:50;3.05;;;1.25;;
42602;SDS011;28233;55.748;48.752;2023-05-09T02:08:53;3.90;;;1.10;;
42602;SDS011;28233;55.748;48.752;2023-05-09T02:10:56;2.88;;;1.52;;
42602;SDS011;28233;55.748;48.752;2023-05-09T02:12:59;5.00;;;0.95;;
42602;SDS011;28233;55.748;48.752;2023-05-09T02:15:02;1.25;;;0.70;;
42602;SDS011;28233;55.748;48.752;2023-05-09T02:17:08;2.80;;;0.90;;
42602;SDS011;28233;55.748;48.752;2023-05-09T02:19:12;3.10;;;1.10;;
42602;SDS011;28233;55.748;48.752;2023-05-09T02:21:15;1.60;;;0.52;;
42602;SDS011;28233;55.748;48.752;2023-05-09T02:23:18;2.58;;;0.90;;
42602;SDS011;28233;55.748;48.752;2023-05-09T02:25:21;4.28;;;0.90;;
42602;SDS011;28233;55.748;48.752;2023-05-09T02:27:24;2.30;;;0.73;;
42602;SDS011;28233;55.748;48.752;2023-05-09T02:29:30;2.55;;;0.75;;
42602;SDS011;28233;55.748;48.752;2023-05-09T02:31:41;5.05;;;1.08;;
42602;SDS011;28233;55.748;48.752;2023-05-09T02:33:46;3.35;;;0.98;;
42602;SDS011;28233;55.748;48.752;2023-05-09T02:35:51;1.17;;;0.70;;
42602;SDS011;28233;55.748;48.752;2023-05-09T02:37:56;1.73;;;0.73;;
42602;SDS011;28233;55.748;48.752;2023-05-09T02:40:01;3.80;;;0.68;;
42602;SDS011;28233;55.748;48.752;2023-05-09T02:42:08;1.42;;;0.80;;
42602;SDS011;28233;55.748;48.752;2023-05-09T02:44:12;2.38;;;0.85;;
42602;SDS011;28233;55.748;48.752;2023-05-09T02:46:15;1.10;;;0.90;;
42602;SDS011;28233;55.748;48.752;2023-05-09T02:48:17;1.67;;;1.10;;
42602;SDS011;28233;55.748;48.752;2023-05-09T02:50:20;1.30;;;0.68;;
42602;SDS011;28233;55.748;48.752;2023-05-09T02:52:23;4.20;;;1.58;;
42602;SDS011;28233;55.748;48.752;2023-05-09T02:54:26;1.40;;;0.80;;
42602;SDS011;28233;55.748;48.752;2023-05-09T02:56:29;4.15;;;1.75;;
42602;SDS011;28233;55.748;48.752;2023-05-09T02:58:32;2.95;;;1.13;;
42602;SDS011;28233;55.748;48.752;2023-05-09T03:00:35;1.75;;;0.82;;
42602;SDS011;28233;55.748;48.752;2023-05-09T03:02:37;3.33;;;1.23;;
42602;SDS011;28233;55.748;48.752;2023-05-09T03:04:40;1.85;;;0.90;;
42602;SDS011;28233;55.748;48.752;2023-05-09T03:06:43;3.78;;;1.50;;
42602;SDS011;28233;55.748;48.752;2023-05-09T03:08:46;2.72;;;1.60;;
42602;SDS011;28233;55.748;48.752;2023-05-09T03:10:49;2.42;;;1.08;;
42602;SDS011;28233;55.748;48.752;2023-05-09T03:12:52;2.70;;;0.88;;
42602;SDS011;28233;55.748;48.752;2023-05-09T03:14:55;1.70;;;1.10;;
42602;SDS011;28233;55.748;48.752;2023-05-09T03:16:58;5.28;;;1.15;;
42602;SDS011;28233;55.748;48.752;2023-05-09T03:19:02;4.00;;;1.50;;
42602;SDS011;28233;55.748;48.752;2023-05-09T03:21:05;2.17;;;0.70;;
42602;SDS011;28233;55.748;48.752;2023-05-09T03:23:07;3.75;;;1.10;;
42602;SDS011;28233;55.748;48.752;2023-05-09T03:25:11;10.13;;;1.17;;
42602;SDS011;28233;55.748;48.752;2023-05-09T03:27:15;8.18;;;1.48;;
42602;SDS011;28233;55.748;48.752;2023-05-09T03:29:17;4.88;;;1.60;;
42602;SDS011;28233;55.748;48.752;2023-05-09T03:31:20;4.47;;;1.90;;
42602;SDS011;28233;55.748;48.752;2023-05-09T03:33:23;3.45;;;1.55;;
42602;SDS011;28233;55.748;48.752;2023-05-09T03:35:26;7.47;;;1.77;;
42602;SDS011;28233;55.748;48.752;2023-05-09T03:37:29;2.65;;;1.30;;
42602;SDS011;28233;55.748;48.752;2023-05-09T03:39:31;7.32;;;1.42;;
42602;SDS011;28233;55.748;48.752;2023-05-09T03:41:35;2.17;;;1.20;;
42602;SDS011;28233;55.748;48.752;2023-05-09T03:43:38;1.30;;;0.60;;
42602;SDS011;28233;55.748;48.752;2023-05-09T03:45:41;2.65;;;0.95;;
42602;SDS011;28233;55.748;48.752;2023-05-09T03:47:44;1.85;;;0.88;;
42602;SDS011;28233;55.748;48.752;2023-05-09T03:49:47;2.28;;;1.00;;
42602;SDS011;28233;55.748;48.752;2023-05-09T03:51:50;1.73;;;0.85;;
42602;SDS011;28233;55.748;48.752;2023-05-09T03:53:53;5.38;;;1.05;;
42602;SDS011;28233;55.748;48.752;2023-05-09T03:55:55;4.32;;;1.33;;
42602;SDS011;28233;55.748;48.752;2023-05-09T03:57:58;1.58;;;1.08;;
42602;SDS011;28233;55.748;48.752;2023-05-09T04:00:01;2.08;;;1.55;;
42602;SDS011;28233;55.748;48.752;2023-05-09T04:02:07;3.13;;;1.50;;
42602;SDS011;28233;55.748;48.752;2023-05-09T04:04:10;2.45;;;1.20;;
42602;SDS011;28233;55.748;48.752;2023-05-09T04:06:13;1.90;;;0.90;;
42602;SDS011;28233;55.748;48.752;2023-05-09T04:08:15;2.60;;;1.35;;
42602;SDS011;28233;55.748;48.752;2023-05-09T04:10:18;1.88;;;1.35;;
42602;SDS011;28233;55.748;48.752;2023-05-09T04:12:21;1.05;;;0.82;;
42602;SDS011;28233;55.748;48.752;2023-05-09T04:14:23;1.25;;;0.68;;
42602;SDS011;28233;55.748;48.752;2023-05-09T04:16:26;1.27;;;0.57;;
42602;SDS011;28233;55.748;48.752;2023-05-09T04:18:29;1.00;;;0.70;;
42602;SDS011;28233;55.748;48.752;2023-05-09T04:20:32;1.80;;;0.70;;
42602;SDS011;28233;55.748;48.752;2023-05-09T04:22:35;1.13;;;0.80;;
42602;SDS011;28233;55.748;48.752;2023-05-09T04:24:38;1.17;;;0.70;;
42602;SDS011;28233;55.748;48.752;2023-05-09T04:26:41;1.00;;;0.60;;
42602;SDS011;28233;55.748;48.752;2023-05-09T04:28:44;1.75;;;0.77;;
42602;SDS011;28233;55.748;48.752;2023-05-09T04:30:47;2.50;;;0.43;;
42602;SDS011;28233;55.748;48.752;2023-05-09T04:32:50;0.40;;;0.30;;
42602;SDS011;28233;55.748;48.752;2023-05-09T04:34:54;1.95;;;0.60;;
42602;SDS011;28233;55.748;48.752;2023-05-09T04:36:57;1.73;;;0.30;;
42602;SDS011;28233;55.748;48.752;2023-05-09T04:39:00;0.30;;;0.20;;
42602;SDS011;28233;55.748;48.752;2023-05-09T04:41:03;0.20;;;0.20;;
42602;SDS011;28233;55.748;48.752;2023-05-09T04:43:06;0.57;;;0.20;;
42602;SDS011;28233;55.748;48.752;2023-05-09T04:45:09;3.70;;;0.22;;
42602;SDS011;28233;55.748;48.752;2023-05-09T04:47:13;1.85;;;0.40;;
42602;SDS011;28233;55.748;48.752;2023-05-09T04:49:15;0.60;;;0.38;;
42602;SDS011;28233;55.748;48.752;2023-05-09T04:51:18;0.52;;;0.30;;
42602;SDS011;28233;55.748;48.752;2023-05-09T04:53:21;0.55;;;0.30;;
42602;SDS011;28233;55.748;48.752;2023-05-09T04:55:24;0.98;;;0.43;;
42602;SDS011;28233;55.748;48.752;2023-05-09T04:57:27;1.85;;;0.30;;
42602;SDS011;28233;55.748;48.752;2023-05-09T04:59:30;0.25;;;0.20;;
42602;SDS011;28233;55.748;48.752;2023-05-09T05:01:32;1.05;;;0.60;;
42602;SDS011;28233;55.748;48.752;2023-05-09T05:03:35;0.38;;;0.20;;
42602;SDS011;28233;55.748;48.752;2023-05-09T05:05:38;2.30;;;1.58;;
42602;SDS011;28233;55.748;48.752;2023-05-09T05:07:43;1.40;;;0.40;;
42602;SDS011;28233;55.748;48.752;2023-05-09T05:09:45;1.23;;;0.20;;
42602;SDS011;28233;55.748;48.752;2023-05-09T05:11:48;0.30;;;0.10;;
42602;SDS011;28233;55.748;48.752;2023-05-09T05:14:02;0.52;;;0.30;;
42602;SDS011;28233;55.748;48.752;2023-05-09T05:16:04;0.93;;;0.20;;
42602;SDS011;28233;55.748;48.752;2023-05-09T05:18:07;0.32;;;0.20;;
42602;SDS011;28233;55.748;48.752;2023-05-09T05:20:10;0.75;;;0.20;;
42602;SDS011;28233;55.748;48.752;2023-05-09T05:22:14;0.90;;;0.38;;
42602;SDS011;28233;55.748;48.752;2023-05-09T05:24:16;0.28;;;0.13;;
42602;SDS011;28233;55.748;48.752;2023-05-09T05:26:19;0.35;;;0.22;;
42602;SDS011;28233;55.748;48.752;2023-05-09T05:28:23;1.95;;;0.40;;
42602;SDS011;28233;55.748;48.752;2023-05-09T05:30:25;0.98;;;0.30;;
42602;SDS011;28233;55.748;48.752;2023-05-09T05:32:28;0.57;;;0.30;;
42602;SDS011;28233;55.748;48.752;2023-05-09T05:34:31;2.08;;;0.40;;
42602;SDS011;28233;55.748;48.752;2023-05-09T05:36:34;0.47;;;0.30;;
42602;SDS011;28233;55.748;48.752;2023-05-09T05:38:37;0.90;;;0.35;;
42602;SDS011;28233;55.748;48.752;2023-05-09T05:40:40;0.70;;;0.40;;
42602;SDS011;28233;55.748;48.752;2023-05-09T05:42:43;2.17;;;0.43;;
42602;SDS011;28233;55.748;48.752;2023-05-09T05:44:47;1.02;;;0.30;;
42602;SDS011;28233;55.748;48.752;2023-05-09T05:46:50;1.55;;;0.20;;
42602;SDS011;28233;55.748;48.752;2023-05-09T05:48:52;3.25;;;0.38;;
42602;SDS011;28233;55.748;48.752;2023-05-09T05:50:56;0.60;;;0.40;;
42602;SDS011;28233;55.748;48.752;2023-05-09T05:52:58;0.80;;;0.40;;
42602;SDS011;28233;55.748;48.752;2023-05-09T05:55:02;0.55;;;0.30;;
42602;SDS011;28233;55.748;48.752;2023-05-09T05:57:05;0.90;;;0.30;;
42602;SDS011;28233;55.748;48.752;2023-05-09T05:59:09;2.22;;;0.28;;
42602;SDS011;28233;55.748;48.752;2023-05-09T06:01:14;1.13;;;0.32;;
42602;SDS011;28233;55.748;48.752;2023-05-09T06:03:17;1.15;;;0.50;;
42602;SDS011;28233;55.748;48.752;2023-05-09T06:05:20;0.65;;;0.30;;
42602;SDS011;28233;55.748;48.752;2023-05-09T06:07:23;0.82;;;0.20;;
42602;SDS011;28233;55.748;48.752;2023-05-09T06:09:25;0.20;;;0.20;;
42602;SDS011;28233;55.748;48.752;2023-05-09T06:11:28;0.95;;;0.22;;
42602;SDS011;28233;55.748;48.752;2023-05-09T06:13:32;0.35;;;0.22;;
42602;SDS011;28233;55.748;48.752;2023-05-09T06:15:35;1.55;;;0.20;;
42602;SDS011;28233;55.748;48.752;2023-05-09T06:17:38;0.32;;;0.30;;
42602;SDS011;28233;55.748;48.752;2023-05-09T06:19:40;1.48;;;0.30;;
42602;SDS011;28233;55.748;48.752;2023-05-09T06:21:43;0.20;;;0.20;;
42602;SDS011;28233;55.748;48.752;2023-05-09T06:23:46;1.98;;;0.40;;
42602;SDS011;28233;55.748;48.752;2023-05-09T06:26:07;0.35;;;0.22;;
42602;SDS011;28233;55.748;48.752;2023-05-09T06:28:09;2.05;;;0.43;;
42602;SDS011;28233;55.748;48.752;2023-05-09T06:30:12;0.93;;;0.40;;
42602;SDS011;28233;55.748;48.752;2023-05-09T06:32:27;0.52;;;0.35;;
42602;SDS011;28233;55.748;48.752;2023-05-09T06:34:30;0.38;;;0.30;;
42602;SDS011;28233;55.748;48.752;2023-05-09T06:36:33;1.67;;;0.50;;
42602;SDS011;28233;55.748;48.752;2023-05-09T06:38:36;1.05;;;0.30;;
42602;SDS011;28233;55.748;48.752;2023-05-09T06:40:39;0.65;;;0.10;;
42602;SDS011;28233;55.748;48.752;2023-05-09T06:42:41;0.63;;;0.40;;
42602;SDS011;28233;55.748;48.752;2023-05-09T06:44:44;0.75;;;0.25;;
42602;SDS011;28233;55.748;48.752;2023-05-09T06:46:47;1.17;;;0.38;;
42602;SDS011;28233;55.748;48.752;2023-05-09T06:48:50;0.20;;;0.20;;
42602;SDS011;28233;55.748;48.752;2023-05-09T06:50:53;1.45;;;0.40;;
42602;SDS011;28233;55.748;48.752;2023-05-09T06:52:55;0.88;;;0.30;;
42602;SDS011;28233;55.748;48.752;2023-05-09T06:54:58;0.65;;;0.20;;
42602;SDS011;28233;55.748;48.752;2023-05-09T06:57:01;1.05;;;0.22;;
42602;SDS011;28233;55.748;48.752;2023-05-09T06:59:04;0.80;;;0.60;;
42602;SDS011;28233;55.748;48.752;2023-05-09T07:01:06;0.40;;;0.10;;
42602;SDS011;28233;55.748;48.752;2023-05-09T07:03:09;0.93;;;0.40;;
42602;SDS011;28233;55.748;48.752;2023-05-09T07:05:13;0.35;;;0.30;;
42602;SDS011;28233;55.748;48.752;2023-05-09T07:07:17;0.63;;;0.25;;
42602;SDS011;28233;55.748;48.752;2023-05-09T07:09:20;0.35;;;0.28;;
42602;SDS011;28233;55.748;48.752;2023-05-09T07:11:24;0.25;;;0.20;;
42602;SDS011;28233;55.748;48.752;2023-05-09T07:13:28;0.90;;;0.50;;
42602;SDS011;28233;55.748;48.752;2023-05-09T07:15:30;0.40;;;0.30;;
42602;SDS011;28233;55.748;48.752;2023-05-09T07:17:43;0.77;;;0.20;;
42602;SDS011;28233;55.748;48.752;2023-05-09T07:19:46;0.20;;;0.20;;
42602;SDS011;28233;55.748;48.752;2023-05-09T07:21:49;1.20;;;0.20;;
42602;SDS011;28233;55.748;48.752;2023-05-09T07:23:52;0.68;;;0.40;;
42602;SDS011;28233;55.748;48.752;2023-05-09T07:25:58;0.45;;;0.20;;
42602;SDS011;28233;55.748;48.752;2023-05-09T07:28:01;0.70;;;0.28;;
42602;SDS011;28233;55.748;48.752;2023-05-09T07:30:04;1.40;;;0.38;;
42602;SDS011;28233;55.748;48.752;2023-05-09T07:32:08;1.90;;;0.50;;
42602;SDS011;28233;55.748;48.752;2023-05-09T07:34:11;0.73;;;0.30;;
42602;SDS011;28233;55.748;48.752;2023-05-09T07:36:14;1.20;;;0.65;;
42602;SDS011;28233;55.748;48.752;2023-05-09T07:38:18;1.17;;;0.52;;
42602;SDS011;28233;55.748;48.752;2023-05-09T07:40:21;0.68;;;0.30;;
42602;SDS011;28233;55.748;48.752;2023-05-09T07:42:23;1.05;;;0.30;;
42602;SDS011;28233;55.748;48.752;2023-05-09T07:44:26;0.88;;;0.30;;
42602;SDS011;28233;55.748;48.752;2023-05-09T07:46:29;0.95;;;0.25;;
42602;SDS011;28233;55.748;48.752;2023-05-09T07:48:32;1.23;;;0.22;;
42602;SDS011;28233;55.748;48.752;2023-05-09T07:50:35;0.90;;;0.40;;
42602;SDS011;28233;55.748;48.752;2023-05-09T07:52:38;1.95;;;0.30;;
42602;SDS011;28233;55.748;48.752;2023-05-09T07:54:40;0.65;;;0.30;;
42602;SDS011;28233;55.748;48.752;2023-05-09T07:56:43;0.40;;;0.32;;
42602;SDS011;28233;55.748;48.752;2023-05-09T07:58:46;1.52;;;0.40;;
42602;SDS011;28233;55.748;48.752;2023-05-09T08:00:49;2.75;;;0.43;;
42602;SDS011;28233;55.748;48.752;2023-05-09T08:02:52;0.35;;;0.20;;
42602;SDS011;28233;55.748;48.752;2023-05-09T08:04:55;1.83;;;0.22;;
42602;SDS011;28233;55.748;48.752;2023-05-09T08:06:58;1.10;;;0.35;;
42602;SDS011;28233;55.748;48.752;2023-05-09T08:09:05;1.05;;;0.20;;
42602;SDS011;28233;55.748;48.752;2023-05-09T08:11:08;0.55;;;0.38;;
42602;SDS011;28233;55.748;48.752;2023-05-09T08:13:11;1.33;;;0.30;;
42602;SDS011;28233;55.748;48.752;2023-05-09T08:15:13;1.70;;;0.32;;
42602;SDS011;28233;55.748;48.752;2023-05-09T08:17:17;0.43;;;0.22;;
42602;SDS011;28233;55.748;48.752;2023-05-09T08:19:19;0.20;;;0.20;;
42602;SDS011;28233;55.748;48.752;2023-05-09T08:21:24;0.28;;;0.10;;
42602;SDS011;28233;55.748;48.752;2023-05-09T08:23:28;0.20;;;0.20;;
42602;SDS011;28233;55.748;48.752;2023-05-09T08:25:31;0.70;;;0.30;;
42602;SDS011;28233;55.748;48.752;2023-05-09T08:27:34;2.80;;;0.80;;
42602;SDS011;28233;55.748;48.752;2023-05-09T08:29:38;0.57;;;0.20;;
42602;SDS011;28233;55.748;48.752;2023-05-09T08:31:41;0.70;;;0.50;;
42602;SDS011;28233;55.748;48.752;2023-05-09T08:33:44;1.48;;;0.32;;
42602;SDS011;28233;55.748;48.752;2023-05-09T08:35:50;1.50;;;0.57;;
42602;SDS011;28233;55.748;48.752;2023-05-09T08:37:57;1.50;;;0.30;;
42602;SDS011;28233;55.748;48.752;2023-05-09T08:40:01;0.85;;;0.30;;
42602;SDS011;28233;55.748;48.752;2023-05-09T08:42:06;1.63;;;0.32;;
42602;SDS011;28233;55.748;48.752;2023-05-09T08:44:10;0.70;;;0.30;;
42602;SDS011;28233;55.748;48.752;2023-05-09T08:46:13;0.85;;;0.47;;
42602;SDS011;28233;55.748;48.752;2023-05-09T08:48:18;1.17;;;0.35;;
42602;SDS011;28233;55.748;48.752;2023-05-09T08:50:23;1.15;;;0.22;;
42602;SDS011;28233;55.748;48.752;2023-05-09T08:52:26;0.65;;;0.40;;
42602;SDS011;28233;55.748;48.752;2023-05-09T08:54:30;1.00;;;0.40;;
42602;SDS011;28233;55.748;48.752;2023-05-09T08:56:34;1.02;;;0.30;;
42602;SDS011;28233;55.748;48.752;2023-05-09T08:58:37;2.92;;;0.28;;
42602;SDS011;28233;55.748;48.752;2023-05-09T09:00:41;0.45;;;0.20;;
42602;SDS011;28233;55.748;48.752;2023-05-09T09:02:44;0.30;;;0.20;;
42602;SDS011;28233;55.748;48.752;2023-05-09T09:04:47;0.32;;;0.10;;
42602;SDS011;28233;55.748;48.752;2023-05-09T09:06:50;0.43;;;0.30;;
42602;SDS011;28233;55.748;48.752;2023-05-09T09:08:55;2.40;;;0.40;;
42602;SDS011;28233;55.748;48.752;2023-05-09T09:10:58;1.77;;;0.43;;
42602;SDS011;28233;55.748;48.752;2023-05-09T09:13:02;1.05;;;0.30;;
42602;SDS011;28233;55.748;48.752;2023-05-09T09:15:06;1.35;;;0.43;;
42602;SDS011;28233;55.748;48.752;2023-05-09T09:17:23;0.70;;;0.50;;
42602;SDS011;28233;55.748;48.752;2023-05-09T09:19:30;2.72;;;0.40;;
42602;SDS011;28233;55.748;48.752;2023-05-09T09:21:37;0.70;;;0.30;;
42602;SDS011;28233;55.748;48.752;2023-05-09T09:23:43;2.75;;;0.70;;
42602;SDS011;28233;55.748;48.752;2023-05-09T09:25:55;2.42;;;0.52;;
42602;SDS011;28233;55.748;48.752;2023-05-09T09:28:01;0.50;;;0.20;;
42602;SDS011;28233;55.748;48.752;2023-05-09T09:30:05;2.75;;;0.30;;
42602;SDS011;28233;55.748;48.752;2023-05-09T09:32:09;0.40;;;0.30;;
42602;SDS011;28233;55.748;48.752;2023-05-09T09:34:13;0.30;;;0.30;;
42602;SDS011;28233;55.748;48.752;2023-05-09T09:36:25;0.50;;;0.30;;
42602;SDS011;28233;55.748;48.752;2023-05-09T09:38:29;0.63;;;0.30;;
42602;SDS011;28233;55.748;48.752;2023-05-09T09:40:48;0.77;;;0.30;;
42602;SDS011;28233;55.748;48.752;2023-05-09T09:42:53;4.47;;;0.50;;
42602;SDS011;28233;55.748;48.752;2023-05-09T09:45:00;1.48;;;0.30;;
42602;SDS011;28233;55.748;48.752;2023-05-09T09:47:05;2.45;;;0.80;;
42602;SDS011;28233;55.748;48.752;2023-05-09T09:49:12;2.08;;;0.88;;
42602;SDS011;28233;55.748;48.752;2023-05-09T09:51:16;0.93;;;0.20;;
42602;SDS011;28233;55.748;48.752;2023-05-09T09:53:19;2.38;;;0.98;;
42602;SDS011;28233;55.748;48.752;2023-05-09T09:55:23;2.70;;;1.35;;
42602;SDS011;28233;55.748;48.752;2023-05-09T09:57:32;0.60;;;0.30;;
42602;SDS011;28233;55.748;48.752;2023-05-09T09:59:38;0.88;;;0.30;;
42602;SDS011;28233;55.748;48.752;2023-05-09T10:04:08;1.08;;;0.35;;
42602;SDS011;28233;55.748;48.752;2023-05-09T10:06:18;0.40;;;0.20;;
42602;SDS011;28233;55.748;48.752;2023-05-09T10:08:20;0.60;;;0.30;;
42602;SDS011;28233;55.748;48.752;2023-05-09T10:10:33;0.73;;;0.50;;
42602;SDS011;28233;55.748;48.752;2023-05-09T10:12:36;2.10;;;0.30;;
42602;SDS011;28233;55.748;48.752;2023-05-09T10:14:41;1.52;;;0.50;;
42602;SDS011;28233;55.748;48.752;2023-05-09T10:16:45;1.45;;;0.45;;
42602;SDS011;28233;55.748;48.752;2023-05-09T10:18:50;0.30;;;0.20;;
42602;SDS011;28233;55.748;48.752;2023-05-09T10:20:53;1.30;;;0.70;;
42602;SDS011;28233;55.748;48.752;2023-05-09T10:23:01;0.70;;;0.30;;
42602;SDS011;28233;55.748;48.752;2023-05-09T10:25:07;0.30;;;0.13;;
42602;SDS011;28233;55.748;48.752;2023-05-09T10:27:17;1.42;;;0.40;;
42602;SDS011;28233;55.748;48.752;2023-05-09T10:29:23;1.60;;;0.50;;
42602;SDS011;28233;55.748;48.752;2023-05-09T10:31:31;0.90;;;0.40;;
42602;SDS011;28233;55.748;48.752;2023-05-09T10:33:42;1.02;;;0.50;;
42602;SDS011;28233;55.748;48.752;2023-05-09T10:35:49;0.95;;;0.40;;
42602;SDS011;28233;55.748;48.752;2023-05-09T10:37:55;2.63;;;0.30;;
42602;SDS011;28233;55.748;48.752;2023-05-09T10:39:59;1.23;;;0.30;;
42602;SDS011;28233;55.748;48.752;2023-05-09T10:42:07;0.93;;;0.20;;
42602;SDS011;28233;55.748;48.752;2023-05-09T10:44:11;1.30;;;0.47;;
42602;SDS011;28233;55.748;48.752;2023-05-09T10:46:14;0.77;;;0.40;;
42602;SDS011;28233;55.748;48.752;2023-05-09T10:48:19;4.68;;;0.40;;
42602;SDS011;28233;55.748;48.752;2023-05-09T10:50:22;3.85;;;0.35;;
42602;SDS011;28233;55.748;48.752;2023-05-09T10:53:12;0.75;;;0.32;;
42602;SDS011;28233;55.748;48.752;2023-05-09T10:55:05;0.70;;;0.43;;
42602;SDS011;28233;55.748;48.752;2023-05-09T10:57:10;0.95;;;0.40;;
42602;SDS011;28233;55.748;48.752;2023-05-09T10:59:32;2.13;;;0.30;;
42602;SDS011;28233;55.748;48.752;2023-05-09T11:01:37;2.35;;;0.40;;
42602;SDS011;28233;55.748;48.752;2023-05-09T11:03:54;1.95;;;0.40;;
42602;SDS011;28233;55.748;48.752;2023-05-09T11:05:58;0.70;;;0.20;;
42602;SDS011;28233;55.748;48.752;2023-05-09T11:08:44;0.60;;;0.40;;
42602;SDS011;28233;55.748;48.752;2023-05-09T11:10:40;1.75;;;0.80;;
42602;SDS011;28233;55.748;48.752;2023-05-09T11:12:54;4.55;;;1.90;;
42602;SDS011;28233;55.748;48.752;2023-05-09T11:15:04;3.95;;;1.08;;
42602;SDS011;28233;55.748;48.752;2023-05-09T11:21:58;2.60;;;0.63;;
42602;SDS011;28233;55.748;48.752;2023-05-09T11:24:14;0.47;;;0.40;;
42602;SDS011;28233;55.748;48.752;2023-05-09T11:26:19;1.70;;;0.68;;
42602;SDS011;28233;55.748;48.752;2023-05-09T11:28:28;2.25;;;0.52;;
42602;SDS011;28233;55.748;48.752;2023-05-09T11:30:38;1.48;;;0.50;;
42602;SDS011;28233;55.748;48.752;2023-05-09T11:32:44;2.05;;;0.40;;
42602;SDS011;28233;55.748;48.752;2023-05-09T11:35:04;1.73;;;0.35;;
42602;SDS011;28233;55.748;48.752;2023-05-09T11:37:14;1.83;;;0.38;;
42602;SDS011;28233;55.748;48.752;2023-05-09T11:39:24;2.33;;;1.00;;
42602;SDS011;28233;55.748;48.752;2023-05-09T11:41:27;1.02;;;0.70;;
42602;SDS011;28233;55.748;48.752;2023-05-09T11:43:31;0.85;;;0.40;;
42602;SDS011;28233;55.748;48.752;2023-05-09T11:45:33;0.82;;;0.30;;
42602;SDS011;28233;55.748;48.752;2023-05-09T11:47:36;1.95;;;0.40;;
42602;SDS011;28233;55.748;48.752;2023-05-09T11:49:43;1.73;;;0.30;;
42602;SDS011;28233;55.748;48.752;2023-05-09T11:51:46;1.33;;;0.35;;
42602;SDS011;28233;55.748;48.752;2023-05-09T11:53:49;2.55;;;0.43;;
42602;SDS011;28233;55.748;48.752;2023-05-09T11:55:52;1.65;;;0.70;;
42602;SDS011;28233;55.748;48.752;2023-05-09T11:57:57;1.48;;;0.65;;
42602;SDS011;28233;55.748;48.752;2023-05-09T12:00:00;0.35;;;0.20;;
42602;SDS011;28233;55.748;48.752;2023-05-09T12:02:07;2.95;;;0.50;;
42602;SDS011;28233;55.748;48.752;2023-05-09T12:04:10;2.65;;;0.40;;
42602;SDS011;28233;55.748;48.752;2023-05-09T12:06:17;1.58;;;0.35;;
42602;SDS011;28233;55.748;48.752;2023-05-09T12:08:21;3.47;;;0.20;;
42602;SDS011;28233;55.748;48.752;2023-05-09T12:10:26;3.25;;;0.30;;
42602;SDS011;28233;55.748;48.752;2023-05-09T12:12:28;0.88;;;0.40;;
42602;SDS011;28233;55.748;48.752;2023-05-09T12:14:35;1.95;;;0.38;;
42602;SDS011;28233;55.748;48.752;2023-05-09T12:16:43;0.90;;;0.30;;
42602;SDS011;28233;55.748;48.752;2023-05-09T12:18:48;1.88;;;0.40;;
42602;SDS011;28233;55.748;48.752;2023-05-09T12:20:52;0.57;;;0.22;;
42602;SDS011;28233;55.748;48.752;2023-05-09T12:22:55;1.35;;;0.20;;
42602;SDS011;28233;55.748;48.752;2023-05-09T12:25:03;1.20;;;0.20;;
42602;SDS011;28233;55.748;48.752;2023-05-09T12:27:08;1.17;;;0.27;;
42602;SDS011;28233;55.748;48.752;2023-05-09T12:29:11;0.90;;;0.35;;
42602;SDS011;28233;55.748;48.752;2023-05-09T12:31:15;4.20;;;0.22;;
42602;SDS011;28233;55.748;48.752;2023-05-09T12:33:19;3.40;;;0.38;;
42602;SDS011;28233;55.748;48.752;2023-05-09T12:35:23;0.60;;;0.30;;
42602;SDS011;28233;55.748;48.752;2023-05-09T12:37:28;4.82;;;0.20;;
42602;SDS011;28233;55.748;48.752;2023-05-09T12:39:33;1.60;;;0.30;;